Mass City, MI (49948)

9:08 AM EDT on April 25, 2015 (GMT -0400)
MesoWest | | Change Station
CLOSE
Current Station
Personal Weather Station
Location: Mass City, MI
Elevation: 1184 ft
Nearby Weather Stations

Elev 1184 ft 46.77 °N, 88.95 °W | Updated 33 minutes ago

Partly Cloudy
Partly Cloudy
31 °F
Feels Like 24 °F
N
7
Wind Variable Wind from East
Gusts 14.0 mph

Today
High -- | Low -- °F
--% Chance of Precip.
Yesterday
High -- | Low -- °F
Precip. -- in
6:51 AM 8:57 PM
Waxing Crescent, 46% visible
Pressure 30.07 in
Visibility 10.0 miles
Clouds Mostly Cloudy 12000 ft
Windchill 24 °F
Dew Point 26 °F
Humidity 83%
Rainfall in
Snow Depth Not available.
UV 1 out of 12
Pollen 7.70 out of 12
Air Quality Not available.
Flu Activity Regional
METAR KCMX 251253Z AUTO 08007KT 10SM BKN120 02/M06 A3003 RMK AO2 SLP181 T00171061

More Conditions Fewer Conditions

Pressure 30.07 in
Visibility 10.0 miles
Clouds Mostly Cloudy 12000 ft
Windchill 24 °F
Dew Point 26 °F
Humidity 83%
Rainfall in
Snow Depth Not available.
UV 1 out of 12
Pollen 7.70 out of 12
Air Quality Not available.
Flu Activity Regional
METAR KCMX 251253Z AUTO 08007KT 10SM BKN120 02/M06 A3003 RMK AO2 SLP181 T00171061

More Conditions Fewer Conditions

10-Day Weather Forecast

Almanac

Astronomy

Apr. 25, 2015 Rise Set
Actual Time
Civil Twilight
Nautical Twilight
Astronomical Twilight
Moon
Length of Visible Light
Length of Day
Tomorrow will be .
, % of the Moon is Illuminated

Today's Extremes

State Highs State Lows

Community

WunderPhotos

Upload Photos

1,816,660 photos uploaded!

WunderBlogs® & News

Nearby

Air Quality

  Air Quality AQ Index Pollutant
Not available.

Snow Depth

Station Depth Elevation

Earthquake Activity

City Distance Mag. Time & Date
Minimum magnitude displayed is 2.5.

Coastal Water Temperatures

Place Temperature

Stations

Nearby Weather Stations

Station Location Temp. Windchill Dew Point Humidity Wind Precip. Elev Updated Type